Time;durP1;ratioP1;P1;durP2;ratioP2;P2;SDS_P1;SDS_P2;PMS_P1;PMS_P2;Temp;Humidity;BMP_temperature;BMP_pressure;BME280_temperature;BME280_humidity;BME280_pressure;Samples;Min_cycle;Max_cycle;Signal;HPM_P1;HPM_P2
2022/06/19 00:00:09;;;;;;;17.08;4.22;;;19.90;66.60;;;;;;5030470;28;20425;-86
2022/06/19 00:02:37;;;;;;;20.23;3.50;;;19.90;66.60;;;;;;5028856;28;20068;-86
2022/06/19 00:05:05;;;;;;;17.95;4.00;;;19.90;66.50;;;;;;5028797;28;20045;-87
2022/06/19 00:07:32;;;;;;;20.83;3.67;;;19.80;66.50;;;;;;5030175;28;20042;-86
2022/06/19 00:10:00;;;;;;;21.27;3.90;;;19.80;66.50;;;;;;5031963;28;20529;-85
2022/06/19 00:12:27;;;;;;;20.20;4.00;;;19.70;66.40;;;;;;5026897;28;20057;-87
2022/06/19 00:14:54;;;;;;;15.45;3.33;;;19.70;66.20;;;;;;5024862;28;20053;-86
2022/06/19 00:17:21;;;;;;;20.90;3.53;;;19.70;66.10;;;;;;5030263;28;21938;-87
2022/06/19 00:19:49;;;;;;;19.27;3.50;;;19.60;66.10;;;;;;5030474;28;20076;-87
2022/06/19 00:22:16;;;;;;;24.23;3.35;;;19.60;66.00;;;;;;5029914;28;20430;-86
2022/06/19 00:24:43;;;;;;;19.25;4.00;;;19.50;65.90;;;;;;5032050;28;20057;-87
2022/06/19 00:27:10;;;;;;;19.85;3.42;;;19.50;65.80;;;;;;5029990;28;20534;-86
2022/06/19 00:29:37;;;;;;;19.75;3.13;;;19.50;65.80;;;;;;5028956;28;20049;-86
2022/06/19 00:32:07;;;;;;;14.07;3.20;;;19.40;65.70;;;;;;5028966;28;20071;-86
2022/06/19 00:34:36;;;;;;;14.93;2.85;;;19.40;65.70;;;;;;5030208;28;20049;-86
2022/06/19 00:37:04;;;;;;;16.50;3.28;;;19.40;65.60;;;;;;5031235;28;20570;-88
2022/06/19 00:39:32;;;;;;;16.17;3.75;;;19.30;65.60;;;;;;5029485;28;20061;-87
2022/06/19 00:41:59;;;;;;;15.90;3.10;;;19.30;65.50;;;;;;5028449;28;20045;-87
2022/06/19 00:44:26;;;;;;;18.30;3.40;;;19.30;65.60;;;;;;5028539;28;20556;-85
2022/06/19 00:47:03;;;;;;;25.23;3.33;;;19.20;65.50;;;;;;5030184;28;20107;-86
2022/06/19 00:49:45;;;;;;;19.50;3.58;;;19.20;65.50;;;;;;5014171;28;20077;-87
2022/06/19 00:52:16;;;;;;;15.80;3.08;;;19.10;65.40;;;;;;5028186;28;20049;-86
2022/06/19 00:54:54;;;;;;;16.67;3.00;;;19.10;65.40;;;;;;5032254;28;20049;-87
2022/06/19 00:57:23;;;;;;;17.40;3.00;;;19.00;65.40;;;;;;5033592;28;20050;-86
2022/06/19 01:00:01;;;;;;;14.35;3.00;;;18.90;65.30;;;;;;5033595;28;20049;-86
2022/06/19 01:02:28;;;;;;;15.60;3.00;;;18.90;65.30;;;;;;5033616;28;20041;-89
2022/06/19 01:04:56;;;;;;;16.48;2.92;;;18.90;65.20;;;;;;5033217;28;20537;-85
2022/06/19 01:07:26;;;;;;;13.32;2.50;;;18.90;65.10;;;;;;5033349;28;20037;-88
2022/06/19 01:09:54;;;;;;;12.95;2.67;;;18.80;64.80;;;;;;5034950;28;20111;-88
2022/06/19 01:12:23;;;;;;;10.32;2.85;;;18.80;64.60;;;;;;5033423;28;20053;-86
2022/06/19 01:14:57;;;;;;;15.00;2.65;;;18.70;64.30;;;;;;5033328;28;20060;-87
2022/06/19 01:17:24;;;;;;;12.95;2.33;;;18.70;64.10;;;;;;5033224;28;20468;-89
2022/06/19 01:19:51;;;;;;;14.40;2.85;;;18.70;63.80;;;;;;5031606;28;20108;-89
2022/06/19 01:22:56;;;;;;;16.25;2.60;;;18.60;63.50;;;;;;5033277;28;20143;-87
2022/06/19 01:25:30;;;;;;;14.25;2.60;;;18.50;63.20;;;;;;5032470;28;20045;-86
2022/06/19 01:30:58;;;;;;;15.95;2.42;;;18.40;62.70;;;;;;5030814;28;20410;-87
2022/06/19 01:33:32;;;;;;;13.55;1.80;;;18.40;62.50;;;;;;5032911;28;20080;-86
2022/06/19 01:36:01;;;;;;;15.27;2.33;;;18.40;62.30;;;;;;5032979;28;20187;-86
2022/06/19 01:38:29;;;;;;;13.73;2.45;;;18.40;62.20;;;;;;5032864;28;20509;-86
2022/06/19 01:41:01;;;;;;;17.73;2.25;;;18.30;62.20;;;;;;5033018;28;20121;-86
2022/06/19 01:43:28;;;;;;;15.02;2.45;;;18.30;62.10;;;;;;5017085;28;20592;-86
2022/06/19 01:45:57;;;;;;;15.05;2.25;;;18.30;62.10;;;;;;5030454;28;20053;-86
2022/06/19 01:48:28;;;;;;;15.25;2.45;;;18.20;62.00;;;;;;5030944;28;20041;-87
2022/06/19 01:50:57;;;;;;;17.88;2.42;;;18.20;61.90;;;;;;5032810;28;20092;-86
2022/06/19 01:53:59;;;;;;;11.82;2.40;;;18.20;61.90;;;;;;5032659;28;20041;-87
2022/06/19 01:56:27;;;;;;;13.40;2.40;;;18.10;61.80;;;;;;5032255;28;20042;-87
2022/06/19 01:59:01;;;;;;;13.57;3.03;;;18.10;61.70;;;;;;5030996;28;20053;-88
2022/06/19 02:01:29;;;;;;;11.27;2.15;;;18.10;61.70;;;;;;5015680;28;20094;-87
2022/06/19 02:04:00;;;;;;;11.02;2.05;;;18.10;61.80;;;;;;5029763;28;20053;-86
2022/06/19 02:06:30;;;;;;;13.02;2.15;;;18.10;61.80;;;;;;5030909;28;20041;-87
2022/06/19 02:09:00;;;;;;;15.88;2.38;;;18.00;61.70;;;;;;5032392;28;20396;-86
2022/06/19 02:11:28;;;;;;;13.18;2.63;;;18.00;61.70;;;;;;5032254;28;20049;-86
2022/06/19 02:13:58;;;;;;;14.82;2.75;;;18.00;61.70;;;;;;5032250;28;20060;-89
2022/06/19 02:16:25;;;;;;;13.63;2.25;;;18.00;61.70;;;;;;5032129;28;20425;-85
2022/06/19 02:18:54;;;;;;;9.25;2.13;;;17.90;61.60;;;;;;5033990;28;20056;-86
2022/06/19 02:21:37;;;;;;;14.23;2.63;;;17.90;61.70;;;;;;5031935;28;20096;-86
2022/06/19 02:24:06;;;;;;;53.22;3.45;;;17.90;61.60;;;;;;5031912;28;20053;-87
2022/06/19 02:26:38;;;;;;;17.48;3.17;;;17.90;61.60;;;;;;5031727;28;20430;-86
2022/06/19 02:29:09;;;;;;;21.10;2.65;;;17.90;61.50;;;;;;5031821;28;20452;-85
2022/06/19 02:31:41;;;;;;;15.85;2.30;;;17.90;61.50;;;;;;5031624;28;20529;-86
2022/06/19 02:34:28;;;;;;;19.17;3.13;;;17.90;61.50;;;;;;5032803;28;20136;-86
2022/06/19 02:36:57;;;;;;;17.40;2.80;;;17.80;61.50;;;;;;5029583;28;20049;-85
2022/06/19 02:39:40;;;;;;;16.77;3.97;;;17.80;61.50;;;;;;5029098;28;20057;-85
2022/06/19 02:42:12;;;;;;;11.68;1.90;;;17.80;61.60;;;;;;5030092;28;20053;-85
2022/06/19 02:44:41;;;;;;;16.98;2.78;;;17.80;61.60;;;;;;5031627;28;20045;-85
2022/06/19 02:47:09;;;;;;;14.68;2.17;;;17.80;61.50;;;;;;5031242;28;20054;-85
2022/06/19 02:49:37;;;;;;;15.90;2.92;;;17.80;61.50;;;;;;5031733;28;20522;-87
2022/06/19 02:52:05;;;;;;;11.73;1.95;;;17.70;61.40;;;;;;5031531;28;20049;-86
2022/06/19 02:54:32;;;;;;;12.10;2.28;;;17.70;61.30;;;;;;5047361;28;20104;-87
2022/06/19 02:56:59;;;;;;;16.77;2.33;;;17.70;61.30;;;;;;5027986;28;20076;-86
2022/06/19 02:59:26;;;;;;;12.40;1.70;;;17.70;61.20;;;;;;5031390;28;20107;-85
2022/06/19 03:01:53;;;;;;;15.20;2.35;;;17.70;61.10;;;;;;5031073;28;20041;-85
2022/06/19 03:04:24;;;;;;;11.90;1.92;;;17.70;61.10;;;;;;5031522;28;20112;-85
2022/06/19 03:06:52;;;;;;;12.95;2.22;;;17.60;61.00;;;;;;5032566;28;20064;-86
2022/06/19 03:09:19;;;;;;;12.52;2.00;;;17.60;61.00;;;;;;5031169;28;20103;-85
2022/06/19 03:11:46;;;;;;;14.90;2.28;;;17.60;61.00;;;;;;5031249;28;20045;-85
2022/06/19 03:14:13;;;;;;;8.40;1.80;;;17.60;61.00;;;;;;5031143;28;20041;-85
2022/06/19 03:16:40;;;;;;;11.98;2.08;;;17.60;61.00;;;;;;5029057;28;20038;-84
2022/06/19 03:19:07;;;;;;;14.25;2.85;;;17.60;61.00;;;;;;5031916;28;20057;-84
2022/06/19 03:21:34;;;;;;;7.75;1.75;;;17.60;61.00;;;;;;5030531;28;20056;-85
2022/06/19 03:24:01;;;;;;;10.07;1.58;;;17.60;61.00;;;;;;5031012;28;20053;-85
2022/06/19 03:26:28;;;;;;;12.90;2.33;;;17.60;61.00;;;;;;5030691;28;20525;-85
2022/06/19 03:28:55;;;;;;;13.90;2.40;;;17.60;61.00;;;;;;5030617;28;20045;-83
2022/06/19 03:31:24;;;;;;;13.10;2.30;;;17.60;61.00;;;;;;5030960;28;20049;-85
2022/06/19 03:33:52;;;;;;;11.20;2.03;;;17.60;61.00;;;;;;5032641;28;20080;-85
2022/06/19 03:36:20;;;;;;;13.23;2.15;;;17.60;60.90;;;;;;5030716;28;20107;-84
2022/06/19 03:38:47;;;;;;;10.75;2.15;;;17.60;61.00;;;;;;5030644;28;20184;-85
2022/06/19 03:41:14;;;;;;;13.07;2.13;;;17.60;60.90;;;;;;5030647;28;20049;-84
2022/06/19 03:43:42;;;;;;;12.35;1.80;;;17.60;61.00;;;;;;5030591;28;20042;-84
2022/06/19 03:46:19;;;;;;;10.30;1.70;;;17.60;61.00;;;;;;5031484;28;20144;-85
2022/06/19 03:48:50;;;;;;;8.32;1.90;;;17.60;61.20;;;;;;5031218;28;20498;-84
2022/06/19 03:51:22;;;;;;;9.25;1.88;;;17.60;61.20;;;;;;5030481;28;20053;-84
2022/06/19 03:53:54;;;;;;;6.97;1.50;;;17.60;61.20;;;;;;5030503;28;20049;-84
2022/06/19 03:56:27;;;;;;;13.90;2.70;;;17.70;61.30;;;;;;5028853;28;20103;-84
2022/06/19 03:58:54;;;;;;;9.45;1.98;;;17.60;61.30;;;;;;5028775;28;20099;-84
2022/06/19 04:01:41;;;;;;;11.68;1.60;;;17.70;61.30;;;;;;5030507;28;20053;-84
2022/06/19 04:04:10;;;;;;;7.65;1.35;;;17.60;61.40;;;;;;5028747;28;20052;-84
2022/06/19 04:06:40;;;;;;;16.55;2.08;;;17.70;61.40;;;;;;5031856;28;20390;-84
2022/06/19 04:09:10;;;;;;;10.35;1.75;;;17.70;61.50;;;;;;5030393;28;20103;-86
2022/06/19 04:11:37;;;;;;;9.40;1.80;;;17.70;61.60;;;;;;5030220;28;20130;-87
2022/06/19 04:14:04;;;;;;;8.77;1.75;;;17.80;61.70;;;;;;5029844;28;20103;-87
2022/06/19 04:16:32;;;;;;;9.35;1.80;;;17.80;61.70;;;;;;5030505;28;20046;-86
2022/06/19 04:19:02;;;;;;;11.95;1.60;;;17.70;61.70;;;;;;5032016;28;20048;-86
2022/06/19 04:21:35;;;;;;;10.18;1.83;;;17.80;61.70;;;;;;5030751;28;20050;-88
2022/06/19 04:24:04;;;;;;;12.57;1.77;;;17.80;61.70;;;;;;5030370;28;20053;-86
2022/06/19 04:26:36;;;;;;;11.98;2.00;;;17.80;61.60;;;;;;5029839;28;20468;-86
2022/06/19 04:29:04;;;;;;;9.82;1.92;;;17.80;61.70;;;;;;5030975;28;20490;-87
2022/06/19 04:31:32;;;;;;;15.32;1.98;;;17.70;61.90;;;;;;5034348;28;20046;-86
2022/06/19 04:33:59;;;;;;;9.77;1.83;;;17.80;62.00;;;;;;5036058;28;20513;-87
2022/06/19 04:36:28;;;;;;;10.93;1.83;;;17.70;62.10;;;;;;5034396;28;20049;-87
2022/06/19 04:38:56;;;;;;;15.60;2.42;;;17.70;62.30;;;;;;5032464;28;20054;-86
2022/06/19 04:41:29;;;;;;;10.75;1.85;;;17.70;62.50;;;;;;5033967;28;20053;-88
2022/06/19 04:43:57;;;;;;;9.90;1.73;;;17.70;62.70;;;;;;5034058;28;20041;-87
2022/06/19 04:46:25;;;;;;;8.57;2.05;;;17.70;62.90;;;;;;5033983;28;20514;-87
2022/06/19 04:48:52;;;;;;;11.23;2.20;;;17.70;63.10;;;;;;5035724;28;20502;-86
2022/06/19 04:51:19;;;;;;;7.30;1.50;;;17.70;63.40;;;;;;5033756;28;20061;-86
2022/06/19 04:53:46;;;;;;;9.40;1.83;;;17.60;63.60;;;;;;5033749;28;20053;-87
2022/06/19 04:56:15;;;;;;;10.95;2.30;;;17.70;63.80;;;;;;5033346;28;20115;-86
2022/06/19 04:58:42;;;;;;;8.82;1.55;;;17.60;63.90;;;;;;5031506;28;20042;-86
2022/06/19 05:01:21;;;;;;;11.52;2.05;;;17.60;64.20;;;;;;5044987;28;20060;-87
2022/06/19 05:03:48;;;;;;;14.43;2.20;;;17.60;64.40;;;;;;5019327;28;20506;-86
2022/06/19 05:06:14;;;;;;;9.50;2.00;;;17.60;64.60;;;;;;5028319;28;20049;-87
2022/06/19 05:08:41;;;;;;;7.75;1.85;;;17.50;64.80;;;;;;5028817;28;20458;-88
2022/06/19 05:11:10;;;;;;;8.02;1.90;;;17.60;65.10;;;;;;5018630;28;20473;-87
2022/06/19 05:13:37;;;;;;;11.70;2.03;;;17.50;65.20;;;;;;5032875;28;20045;-85
2022/06/19 05:16:10;;;;;;;12.75;1.77;;;17.50;65.50;;;;;;5030989;28;20053;-86
2022/06/19 05:18:37;;;;;;;9.50;2.20;;;17.50;65.70;;;;;;5029886;28;20080;-86
2022/06/19 05:21:05;;;;;;;8.80;1.75;;;17.40;65.80;;;;;;5025317;28;20124;-86
2022/06/19 05:23:36;;;;;;;10.50;1.98;;;17.40;66.00;;;;;;5022057;28;20046;-86
2022/06/19 05:26:07;;;;;;;9.10;2.20;;;17.40;66.10;;;;;;5033237;28;20057;-85
2022/06/19 05:28:35;;;;;;;8.85;2.22;;;17.30;66.30;;;;;;5018208;28;20045;-86
2022/06/19 05:31:03;;;;;;;11.38;2.70;;;17.30;66.40;;;;;;5030652;28;20049;-86
2022/06/19 05:33:32;;;;;;;11.93;1.67;;;17.20;66.60;;;;;;5029108;28;20046;-86
2022/06/19 05:35:59;;;;;;;13.18;2.05;;;17.20;66.70;;;;;;5030262;28;20107;-86
2022/06/19 05:38:26;;;;;;;8.57;1.70;;;17.10;66.80;;;;;;5032196;28;20095;-85
2022/06/19 05:40:55;;;;;;;14.80;2.05;;;17.00;66.90;;;;;;5028108;28;20042;-86
2022/06/19 05:43:24;;;;;;;12.05;2.05;;;17.00;67.00;;;;;;5031930;28;20517;-86
2022/06/19 05:45:53;;;;;;;11.48;1.63;;;17.00;67.10;;;;;;5034426;28;20053;-86
2022/06/19 05:48:20;;;;;;;11.45;2.42;;;16.90;67.10;;;;;;5029997;28;20426;-85
2022/06/19 05:51:00;;;;;;;9.70;1.80;;;16.90;67.20;;;;;;5028819;28;20049;-85
2022/06/19 05:53:30;;;;;;;12.48;2.03;;;16.90;67.30;;;;;;5029979;28;20465;-85
2022/06/19 05:55:57;;;;;;;15.15;2.20;;;16.90;67.40;;;;;;5031356;28;20488;-86
2022/06/19 05:58:25;;;;;;;8.05;1.83;;;16.90;67.40;;;;;;5030868;28;20069;-85
2022/06/19 06:00:52;;;;;;;9.55;1.60;;;16.80;67.50;;;;;;5033654;28;20057;-85
2022/06/19 06:03:21;;;;;;;12.75;2.00;;;16.80;67.60;;;;;;5029888;28;20053;-85
2022/06/19 06:05:48;;;;;;;5.35;1.20;;;16.70;67.60;;;;;;5030185;28;20061;-85
2022/06/19 06:08:16;;;;;;;7.53;1.48;;;16.80;67.60;;;;;;5029790;28;20064;-85
2022/06/19 06:10:49;;;;;;;10.23;1.67;;;16.70;67.60;;;;;;5029488;28;20062;-85
2022/06/19 06:13:17;;;;;;;10.52;1.52;;;16.70;67.70;;;;;;5032339;28;20049;-85
2022/06/19 06:15:45;;;;;;;7.22;1.52;;;16.70;67.80;;;;;;5034011;28;20053;-85
2022/06/19 06:18:13;;;;;;;9.38;1.73;;;16.60;67.80;;;;;;5031345;28;20055;-85
2022/06/19 06:20:41;;;;;;;5.75;1.42;;;16.60;67.90;;;;;;5029314;28;20042;-84
2022/06/19 06:23:09;;;;;;;7.43;1.80;;;16.60;68.00;;;;;;5029105;28;20045;-85
2022/06/19 06:25:40;;;;;;;9.27;1.85;;;16.60;68.00;;;;;;5029520;28;20462;-85
2022/06/19 06:28:13;;;;;;;8.77;1.98;;;16.60;68.10;;;;;;5031891;28;20514;-85
2022/06/19 06:30:40;;;;;;;6.95;1.85;;;16.60;68.20;;;;;;5031525;28;20053;-85
2022/06/19 06:33:07;;;;;;;7.55;2.15;;;16.60;68.20;;;;;;5029226;28;20122;-85
2022/06/19 06:35:34;;;;;;;7.20;1.80;;;16.60;68.30;;;;;;5029293;28;20076;-85
2022/06/19 06:38:01;;;;;;;9.27;2.22;;;16.60;68.40;;;;;;5028948;28;20049;-85
2022/06/19 06:40:28;;;;;;;8.98;1.77;;;16.60;68.40;;;;;;5013853;28;20469;-85
2022/06/19 06:42:55;;;;;;;11.35;2.28;;;16.60;68.50;;;;;;5033418;28;20387;-85
2022/06/19 06:45:23;;;;;;;7.30;1.90;;;16.70;68.60;;;;;;5029081;28;20045;-84
2022/06/19 06:47:50;;;;;;;8.25;1.90;;;16.70;68.70;;;;;;5029312;28;20076;-85
2022/06/19 06:50:17;;;;;;;13.80;2.10;;;16.70;68.80;;;;;;5028851;28;20053;-85
2022/06/19 06:52:44;;;;;;;8.27;2.40;;;16.70;68.90;;;;;;5028359;28;20502;-85
2022/06/19 06:55:12;;;;;;;10.38;2.10;;;16.80;68.90;;;;;;5015603;28;20046;-85
2022/06/19 06:57:39;;;;;;;11.52;2.25;;;16.80;69.00;;;;;;5030746;28;20487;-85
2022/06/19 07:00:08;;;;;;;9.93;2.17;;;16.80;69.00;;;;;;5028624;28;20049;-85
2022/06/19 07:02:34;;;;;;;10.05;2.20;;;16.80;69.00;;;;;;5028677;28;20111;-85
2022/06/19 07:05:01;;;;;;;11.95;2.50;;;16.90;69.00;;;;;;5030383;28;20045;-85
2022/06/19 07:07:28;;;;;;;13.48;2.17;;;16.80;69.00;;;;;;5013019;28;20410;-86
2022/06/19 07:09:55;;;;;;;10.88;2.20;;;16.90;69.10;;;;;;5032744;28;20509;-85
2022/06/19 07:12:22;;;;;;;12.45;2.60;;;16.80;69.10;;;;;;5028684;28;20107;-86
2022/06/19 07:14:49;;;;;;;13.57;2.42;;;16.80;69.30;;;;;;5028501;28;20053;-85
2022/06/19 07:17:16;;;;;;;17.23;2.85;;;16.90;69.40;;;;;;5028900;28;20115;-85
2022/06/19 07:19:44;;;;;;;9.10;2.10;;;16.90;69.50;;;;;;5028478;28;20130;-85
2022/06/19 07:22:16;;;;;;;14.77;3.03;;;16.80;69.60;;;;;;5030496;28;20584;-85
2022/06/19 07:24:44;;;;;;;13.98;2.70;;;16.80;69.80;;;;;;5030850;28;20041;-86
2022/06/19 07:27:11;;;;;;;10.93;2.30;;;16.90;70.00;;;;;;5028505;28;20456;-85
2022/06/19 07:29:43;;;;;;;15.57;3.10;;;16.90;70.20;;;;;;5028257;28;20091;-86
2022/06/19 07:32:11;;;;;;;9.43;2.38;;;16.80;70.40;;;;;;5028138;28;20563;-86
2022/06/19 07:34:39;;;;;;;14.80;2.45;;;16.80;70.50;;;;;;5030000;28;20057;-85
2022/06/19 07:37:06;;;;;;;12.80;2.67;;;16.90;70.70;;;;;;5030732;28;20115;-86
2022/06/19 07:39:36;;;;;;;14.88;2.83;;;16.90;70.90;;;;;;5028917;28;20057;-86
2022/06/19 07:42:05;;;;;;;15.02;3.22;;;16.90;71.10;;;;;;5028119;28;20049;-87
2022/06/19 07:44:32;;;;;;;16.25;3.00;;;16.90;71.20;;;;;;5026752;28;20414;-86
2022/06/19 07:52:30;;;;;;;15.52;2.75;;;17.00;71.60;;;;;;5012727;28;20091;-88
2022/06/19 07:54:57;;;;;;;14.30;3.58;;;17.00;71.70;;;;;;5027011;28;20049;-87
2022/06/19 07:57:24;;;;;;;16.67;3.20;;;17.00;71.80;;;;;;5028095;28;20041;-86
2022/06/19 07:59:51;;;;;;;15.90;3.00;;;17.10;71.90;;;;;;5027653;28;20095;-87
2022/06/19 08:02:18;;;;;;;19.58;3.55;;;17.10;71.90;;;;;;5027920;28;20041;-86
2022/06/19 08:04:45;;;;;;;19.85;3.58;;;17.10;72.00;;;;;;5027137;28;20144;-86
2022/06/19 08:07:14;;;;;;;14.25;3.13;;;17.20;72.10;;;;;;5030353;28;20090;-88
2022/06/19 08:09:41;;;;;;;17.60;3.20;;;17.20;72.10;;;;;;5030133;28;20049;-86
2022/06/19 08:12:09;;;;;;;19.58;3.72;;;17.20;72.20;;;;;;5027651;28;20061;-86
2022/06/19 08:14:36;;;;;;;19.92;4.15;;;17.30;72.20;;;;;;5029247;28;20108;-86
2022/06/19 08:17:04;;;;;;;19.50;3.15;;;17.30;72.20;;;;;;5027728;28;20414;-87
2022/06/19 08:19:32;;;;;;;18.63;3.45;;;17.30;72.20;;;;;;5029123;28;20117;-87
2022/06/19 08:21:58;;;;;;;16.17;3.22;;;17.30;72.20;;;;;;5031901;28;20049;-86
2022/06/19 08:24:26;;;;;;;13.38;3.00;;;17.30;72.20;;;;;;5027282;28;20407;-86
2022/06/19 08:27:10;;;;;;;11.90;2.50;;;17.40;72.20;;;;;;5027444;28;20049;-86
2022/06/19 08:29:37;;;;;;;15.63;3.13;;;17.40;72.20;;;;;;5027611;28;20115;-86
2022/06/19 08:32:05;;;;;;;15.98;3.08;;;17.40;72.20;;;;;;5026332;28;20041;-86
2022/06/19 08:34:32;;;;;;;16.10;3.40;;;17.40;72.20;;;;;;5027611;28;20134;-84
2022/06/19 08:37:03;;;;;;;16.88;2.92;;;17.40;72.20;;;;;;5031513;28;20057;-87
2022/06/19 08:39:31;;;;;;;14.32;2.90;;;17.40;72.10;;;;;;5028957;28;20126;-88
2022/06/19 08:42:06;;;;;;;16.73;3.42;;;17.40;72.00;;;;;;5027414;28;20079;-87
2022/06/19 08:44:44;;;;;;;18.08;3.60;;;17.40;71.90;;;;;;5027385;28;20045;-85
2022/06/19 08:47:38;;;;;;;12.68;3.33;;;17.40;71.70;;;;;;5027303;28;20444;-86
2022/06/19 08:50:08;;;;;;;17.42;3.95;;;17.40;71.60;;;;;;5026889;28;20069;-86
2022/06/19 08:52:55;;;;;;;15.90;3.58;;;17.50;71.50;;;;;;5029198;28;20045;-85
2022/06/19 08:55:35;;;;;;;13.75;3.20;;;17.40;71.40;;;;;;5026756;28;20046;-86
2022/06/19 08:58:04;;;;;;;14.10;3.67;;;17.40;71.30;;;;;;5026926;28;20065;-87
2022/06/19 09:01:00;;;;;;;19.45;3.58;;;17.40;71.30;;;;;;5023022;28;20100;-84
2022/06/19 09:06:49;;;;;;;13.95;3.30;;;17.40;71.30;;;;;;5026599;28;20057;-85
2022/06/19 09:09:18;;;;;;;14.90;3.65;;;17.50;71.30;;;;;;5026103;28;20465;-86
2022/06/19 09:12:15;;;;;;;16.67;3.75;;;17.40;71.30;;;;;;5026832;28;20057;-86
2022/06/19 09:15:03;;;;;;;17.38;3.85;;;17.50;71.40;;;;;;5027385;28;20481;-84
2022/06/19 09:17:46;;;;;;;14.65;3.50;;;17.50;71.40;;;;;;5029786;28;20045;-85
2022/06/19 09:20:24;;;;;;;17.77;3.92;;;17.50;71.40;;;;;;5029910;28;20042;-85
2022/06/19 09:23:03;;;;;;;14.52;3.05;;;17.60;71.40;;;;;;5030095;28;20042;-86
2022/06/19 09:25:30;;;;;;;23.52;4.22;;;17.60;71.30;;;;;;5014220;28;20487;-84
2022/06/19 09:28:16;;;;;;;15.13;3.70;;;17.60;71.20;;;;;;5034436;28;20050;-85
2022/06/19 09:30:50;;;;;;;20.05;3.95;;;17.70;71.20;;;;;;5032549;28;20057;-85
2022/06/19 09:33:17;;;;;;;16.80;4.07;;;17.70;71.10;;;;;;5030963;28;20514;-85
2022/06/19 09:35:53;;;;;;;14.18;3.42;;;17.70;71.00;;;;;;5030006;28;20049;-85
2022/06/19 09:38:23;;;;;;;11.10;3.53;;;17.70;71.00;;;;;;5029663;28;20044;-84
2022/06/19 09:40:57;;;;;;;15.07;3.58;;;17.70;70.90;;;;;;5029748;28;20104;-84
2022/06/19 09:43:32;;;;;;;15.23;4.15;;;17.70;70.90;;;;;;5029206;28;20090;-85
2022/06/19 09:46:05;;;;;;;16.08;4.40;;;17.70;70.90;;;;;;5030093;28;20053;-85
2022/06/19 09:48:42;;;;;;;16.42;4.50;;;17.80;70.80;;;;;;5030595;28;20052;-84
2022/06/19 09:51:19;;;;;;;19.08;4.28;;;17.70;70.80;;;;;;5029585;28;20080;-84
2022/06/19 09:54:05;;;;;;;15.07;3.50;;;17.70;70.70;;;;;;5029833;28;20551;-84
2022/06/19 09:56:45;;;;;;;18.55;4.03;;;17.70;70.80;;;;;;5029299;28;20464;-84
2022/06/19 09:59:19;;;;;;;15.93;4.18;;;17.70;70.70;;;;;;5028191;28;20683;-84
2022/06/19 10:01:58;;;;;;;15.68;4.75;;;17.70;70.70;;;;;;5029174;28;20100;-84
2022/06/19 10:04:56;;;;;;;16.15;4.72;;;17.80;70.80;;;;;;5029724;28;20092;-84
2022/06/19 10:07:35;;;;;;;14.48;5.15;;;17.80;70.90;;;;;;5029677;28;20085;-84
2022/06/19 10:10:45;;;;;;;21.33;4.68;;;17.80;70.80;;;;;;5029185;28;20465;-85
2022/06/19 10:13:20;;;;;;;22.48;4.88;;;17.80;70.80;;;;;;5027859;28;20423;-85
2022/06/19 10:15:49;;;;;;;17.98;5.03;;;17.80;70.80;;;;;;5031192;28;20509;-84
2022/06/19 10:18:45;;;;;;;14.02;4.38;;;17.80;70.80;;;;;;5027215;28;20136;-84
2022/06/19 10:24:43;;;;;;;20.00;3.83;;;17.80;70.90;;;;;;5027279;28;20607;-84
2022/06/19 10:27:38;;;;;;;16.23;4.45;;;17.80;71.00;;;;;;5026275;28;20111;-86
2022/06/19 10:30:07;;;;;;;14.43;3.97;;;17.80;71.10;;;;;;5028501;28;20041;-87
2022/06/19 10:32:46;;;;;;;15.25;3.90;;;17.80;71.10;;;;;;5026789;28;20046;-86
2022/06/19 10:35:43;;;;;;;12.52;3.95;;;17.80;71.30;;;;;;5026858;28;20054;-85
2022/06/19 10:38:24;;;;;;;12.55;4.28;;;17.80;71.40;;;;;;5027103;28;20099;-86
2022/06/19 10:42:00;;;;;;;19.02;4.22;;;17.80;71.60;;;;;;5026806;28;20058;-86
2022/06/19 10:44:37;;;;;;;14.85;3.85;;;17.80;71.70;;;;;;5015815;28;20111;-88
2022/06/19 10:47:30;;;;;;;15.23;3.92;;;17.80;71.80;;;;;;5029870;28;20045;-88
2022/06/19 10:50:25;;;;;;;12.55;3.78;;;17.80;71.90;;;;;;5030040;28;20045;-88
2022/06/19 10:53:04;;;;;;;14.63;4.82;;;17.80;72.10;;;;;;5015795;28;20502;-88
2022/06/19 10:55:40;;;;;;;14.00;3.78;;;17.80;72.20;;;;;;5012914;28;20045;-88
2022/06/19 10:58:18;;;;;;;11.60;3.95;;;17.80;72.40;;;;;;5031038;28;20096;-89
2022/06/19 11:00:51;;;;;;;11.98;3.95;;;17.80;72.50;;;;;;5030965;28;20053;-89
2022/06/19 11:06:39;;;;;;;14.50;3.78;;;17.90;72.90;;;;;;5028706;28;20050;-89
2022/06/19 11:09:13;;;;;;;15.20;4.47;;;17.90;73.00;;;;;;5028070;28;20113;-87
2022/06/19 11:11:43;;;;;;;16.90;4.78;;;17.80;73.10;;;;;;5028585;28;20048;-87
2022/06/19 11:14:13;;;;;;;15.38;4.03;;;17.90;73.20;;;;;;5027681;28;20056;-88
2022/06/19 11:17:04;;;;;;;11.20;4.20;;;17.90;73.30;;;;;;5028189;28;20042;-88
2022/06/19 11:19:47;;;;;;;13.90;4.07;;;17.90;73.40;;;;;;5027609;28;20053;-88
2022/06/19 11:22:41;;;;;;;15.03;4.10;;;17.90;73.40;;;;;;5030209;28;20053;-88
2022/06/19 11:25:20;;;;;;;13.07;3.80;;;17.90;73.50;;;;;;5030519;28;20053;-89
2022/06/19 11:28:12;;;;;;;17.67;4.72;;;17.90;73.60;;;;;;4991384;28;20054;-88
2022/06/19 11:30:44;;;;;;;14.73;4.70;;;17.90;73.60;;;;;;4992539;28;20050;-88
2022/06/19 11:33:32;;;;;;;11.07;4.22;;;17.90;73.70;;;;;;4988534;28;20132;-88
2022/06/19 11:36:04;;;;;;;12.57;4.07;;;17.90;73.70;;;;;;4990683;28;20101;-89
2022/06/19 11:38:40;;;;;;;11.75;3.92;;;18.00;73.70;;;;;;4988555;28;20050;-89
2022/06/19 11:41:26;;;;;;;11.50;3.80;;;17.90;73.70;;;;;;4988210;28;20051;-90
2022/06/19 11:44:16;;;;;;;12.70;3.80;;;18.00;73.80;;;;;;4988193;28;20148;-88
2022/06/19 11:46:51;;;;;;;11.73;3.47;;;18.00;73.90;;;;;;4976428;28;20046;-89
2022/06/19 11:49:28;;;;;;;14.02;3.75;;;18.00;74.00;;;;;;4990240;28;20522;-89
2022/06/19 11:52:05;;;;;;;11.32;3.60;;;18.00;74.00;;;;;;4987152;28;20101;-88
2022/06/19 11:54:40;;;;;;;9.88;3.60;;;18.00;74.00;;;;;;4984624;28;20066;-89
2022/06/19 11:57:22;;;;;;;10.90;3.75;;;18.10;74.10;;;;;;4986518;28;20096;-89
2022/06/19 11:59:56;;;;;;;15.45;4.10;;;18.10;74.20;;;;;;4987140;28;20052;-89
2022/06/19 12:02:40;;;;;;;13.70;3.53;;;18.10;74.20;;;;;;4987817;28;20050;-88
2022/06/19 12:05:36;;;;;;;13.20;4.28;;;18.10;74.20;;;;;;4988049;28;20066;-90
2022/06/19 12:08:27;;;;;;;13.18;3.95;;;18.10;74.30;;;;;;4988471;28;20049;-90
2022/06/19 12:11:00;;;;;;;11.68;3.97;;;18.10;74.40;;;;;;4987974;28;20093;-90
2022/06/19 12:13:30;;;;;;;13.88;4.60;;;18.10;74.40;;;;;;4988606;28;20503;-89
2022/06/19 12:16:08;;;;;;;10.18;3.72;;;18.10;74.50;;;;;;4988270;28;20501;-89
2022/06/19 12:18:36;;;;;;;12.95;4.20;;;18.10;74.60;;;;;;4991264;28;20054;-88
2022/06/19 12:21:24;;;;;;;12.93;4.47;;;18.10;74.60;;;;;;4987690;28;20050;-88
2022/06/19 12:24:06;;;;;;;12.13;4.22;;;18.10;74.70;;;;;;4985334;28;20116;-88
2022/06/19 12:26:56;;;;;;;16.35;5.00;;;18.10;74.90;;;;;;5008537;28;20050;-88
2022/06/19 12:29:55;;;;;;;14.18;4.15;;;18.10;75.00;;;;;;5027154;28;20056;-88
2022/06/19 12:32:31;;;;;;;10.38;3.90;;;18.20;75.10;;;;;;5054714;28;20053;-87
2022/06/19 12:35:03;;;;;;;10.35;4.63;;;18.20;75.20;;;;;;5027271;28;20591;-87
2022/06/19 12:37:31;;;;;;;9.13;3.63;;;18.20;75.40;;;;;;5011870;28;20505;-89
2022/06/19 12:39:58;;;;;;;14.02;4.60;;;18.20;75.60;;;;;;5025884;28;20046;-87
2022/06/19 12:42:35;;;;;;;9.68;4.38;;;18.30;75.70;;;;;;5027349;28;20568;-87
2022/06/19 12:45:13;;;;;;;13.00;4.22;;;18.30;75.80;;;;;;5026822;28;20131;-87
2022/06/19 12:47:49;;;;;;;11.82;3.85;;;18.40;75.90;;;;;;5028719;28;20679;-87
2022/06/19 12:50:49;;;;;;;12.30;3.95;;;18.40;76.00;;;;;;5026953;28;20049;-87
2022/06/19 12:53:34;;;;;;;10.57;3.58;;;18.40;76.00;;;;;;5030651;28;20045;-88
2022/06/19 12:56:10;;;;;;;11.35;3.70;;;18.50;75.90;;;;;;5030351;28;20103;-88
2022/06/19 12:58:58;;;;;;;10.63;3.38;;;18.50;75.90;;;;;;5016222;28;20507;-89
2022/06/19 13:01:55;;;;;;;12.02;3.47;;;18.60;76.00;;;;;;5031392;28;20053;-88
2022/06/19 13:04:22;;;;;;;8.40;3.00;;;18.60;76.00;;;;;;5030933;28;20180;-90
2022/06/19 13:07:29;;;;;;;12.07;3.30;;;18.70;76.00;;;;;;5033784;28;20492;-88
2022/06/19 13:10:03;;;;;;;9.43;2.70;;;18.80;76.00;;;;;;5030243;28;20502;-89
2022/06/19 13:13:01;;;;;;;9.43;3.03;;;18.90;76.00;;;;;;5044648;28;20049;-90
2022/06/19 13:16:01;;;;;;;10.38;3.10;;;18.90;75.90;;;;;;5032815;28;20095;-90
2022/06/19 13:18:38;;;;;;;8.07;3.08;;;19.10;75.70;;;;;;5031634;28;20513;-91
2022/06/19 13:21:08;;;;;;;7.15;2.75;;;19.20;75.50;;;;;;5030524;28;20049;-90
2022/06/19 13:23:41;;;;;;;10.05;3.20;;;19.30;75.20;;;;;;5029799;28;20054;-90
2022/06/19 13:29:35;;;;;;;9.57;3.50;;;19.40;74.50;;;;;;5030165;28;20053;-90